Flight Track Log - Related Links

Times and Time Zones

All times are in EDT time to prevent confusion due to time zone crossing. See the N333RL flight status page for this flight to view local times or setup timezone preferences in your user account.

Time Position Orientation Groundspeed Altitude Reporting Facility
EDT Latitude Longitude Course Direction KTS MPH feet Rate Location/Type
Thu 08:51:26 AM 42.3483 -82.9458 142° Southeast 219 252 4,200  Level Cleveland Center
Thu 08:52:26 AM 42.2956 -82.8794 137° Southeast 240 276 6,900 3,300 Climbing Cleveland Center
Thu 08:53:26 AM 42.2597 -82.7883 118° Southeast 270 311 10,800 3,650 Climbing Cleveland Center
Thu 08:54:26 AM 42.2475 -82.6589 97° East 297 342 14,200 3,200 Climbing Cleveland Center
Thu 08:55:26 AM 42.2314 -82.5181 99° East 338 389 17,200 2,950 Climbing Cleveland Center
Thu 08:56:26 AM 42.2172 -82.3606 97° East 385 443 20,100 2,900 Climbing Cleveland Center
Thu 08:57:26 AM 42.2072 -82.1950 95° East 420 483 23,000 2,650 Climbing Cleveland Center
Thu 08:58:26 AM 42.1886 -82.0094 98° East 450 518 25,400 2,400 Climbing Cleveland Center
Thu 08:59:26 AM 42.1364 -81.8489 114° Southeast 456 525 27,800 2,050 Climbing Cleveland Center
Thu 09:00:26 AM 42.0608 -81.7131 127° Southeast 456 525 29,500 1,350 Climbing Cleveland Center
Thu 09:01:26 AM 41.9786 -81.5747 129° Southeast 467 537 30,500 950 Climbing Cleveland Center
Thu 09:02:26 AM 41.9047 -81.4453 127° Southeast 480 552 31,400 950 Climbing Cleveland Center
Thu 09:03:26 AM 41.8181 -81.2992 128° Southeast 486 559 32,400 1,000 Climbing Cleveland Center
Thu 09:04:26 AM 41.7356 -81.1536 127° Southeast 491 565 33,400 1,050 Climbing Cleveland Center
Thu 09:05:26 AM 41.6506 -81.0167 130° Southeast 491 565 34,500 800 Climbing Cleveland Center
Thu 09:06:26 AM 41.5594 -80.8606 128° Southeast 491 565 35,000 250 Climbing Cleveland Center
Thu 09:07:26 AM 41.4742 -80.7161 128° Southeast 497 572 35,000  Level Cleveland Center
Thu 09:08:26 AM 41.3867 -80.5692 128° Southeast 497 572 35,000  Level Cleveland Center
Thu 09:09:27 AM 41.3011 -80.4256 128° Southeast 498 573 35,000  Level Cleveland Center
Thu 09:10:26 AM 41.2239 -80.2961 128° Southeast 504 580 35,000  Level Cleveland Center
Thu 09:11:26 AM 41.1378 -80.1531 129° Southeast 494 568 35,000  Level Cleveland Center
Thu 09:12:26 AM 41.0517 -80.0106 129° Southeast 494 568 35,000  Level Cleveland Center
Thu 09:13:26 AM 40.9656 -79.8708 129° Southeast 494 568 35,000  Level Cleveland Center
Thu 09:14:26 AM 40.8792 -79.7344 130° Southeast 494 568 35,000  Level Cleveland Center
Thu 09:15:26 AM 40.7947 -79.5986 129° Southeast 494 568 35,000  Level Cleveland Center
Thu 09:16:26 AM 40.7122 -79.4656 129° Southeast 482 555 35,000  Level Cleveland Center
Thu 09:17:26 AM 40.6314 -79.3328 129° Southeast 477 549 35,000  Level Cleveland Center
Thu 09:18:26 AM 40.5467 -79.2006 130° Southeast 471 542 35,000 -250 Level Cleveland Center
Thu 09:19:26 AM 40.4864 -79.0461 117° Southeast 471 542 34,500 -600 Descending Cleveland Center
Thu 09:20:26 AM 40.4586 -78.8694 102° East 471 542 33,800 -1,050 Descending Cleveland Center
Thu 09:21:26 AM 40.4453 -78.6869 95° East 482 555 32,400 -2,050 Descending Cleveland Center
Thu 09:22:26 AM 40.4297 -78.5019 96° East 495 570 29,700 -2,700 Descending Cleveland Center
Thu 09:23:26 AM 40.4158 -78.3225 96° East 500 575 27,000 -2,104 Descending Cleveland Center
Thu 09:24:40 AM 40.3983 -78.1083 96° East 526 605 25,000 -909 Descending New York Center
Thu 09:25:38 AM 40.3819 -77.9322 97° East 505 581 25,000 -50 Level New York Center
Thu 09:26:41 AM 40.3631 -77.7258 97° East 505 581 24,900 -446 Descending New York Center
Thu 09:27:39 AM 40.3375 -77.5544 101° East 499 574 24,100 -555 Descending New York Center
Thu 09:28:40 AM 40.3097 -77.3828 102° East 487 560 23,800 -645 Descending New York Center
Thu 09:29:40 AM 40.2778 -77.2083 103° East 487 560 22,800 -1,240 Descending New York Center
Thu 09:30:41 AM 40.2492 -77.0397 102° East 482 555 21,300 -1,361 Descending New York Center
Thu 09:31:39 AM 40.2203 -76.8767 103° East 466 536 20,100 -1,576 Descending New York Center
Thu 09:32:39 AM 40.2000 -76.7417 101° East 441 507 18,200 -1,934 Descending New York Center
Thu 09:33:40 AM 40.1725 -76.5844 103° East 406 467 16,200 -1,950 Descending New York Center
Thu 09:34:39 AM 40.1481 -76.4439 103° East 400 460 14,300 -1,922 Descending New York Center
Thu 09:35:23 AM 40.1294 -76.3464 104° East 369 425 12,900 -1,688 Descending FAA TRACON SMA TRACON (SMA)
Thu 09:35:43 AM 40.1225 -76.3092 104° East 359 413 12,500 -1,050 Descending FAA TRACON SMA TRACON (SMA)
Thu 09:36:03 AM 40.1175 -76.2711 100° East 344 396 12,200 -1,200 Descending FAA TRACON SMA TRACON (SMA)
Thu 09:36:23 AM 40.1147 -76.2244 94° East 340 391 11,700 -1,500 Descending FAA TRACON SMA TRACON (SMA)
Thu 09:36:43 AM 40.1125 -76.1867 94° East 337 388 11,200 -1,350 Descending FAA TRACON SMA TRACON (SMA)
Thu 09:37:03 AM 40.1100 -76.1500 95° East 334 384 10,800 -1,500 Descending FAA TRACON SMA TRACON (SMA)
Thu 09:37:23 AM 40.1072 -76.1053 95° East 329 379 10,200 -1,650 Descending FAA TRACON SMA TRACON (SMA)
Thu 09:37:43 AM 40.1047 -76.0697 95° East 320 368 9,700 -2,100 Descending FAA TRACON SMA TRACON (SMA)
Thu 09:38:03 AM 40.1033 -76.0353 93° East 315 362 8,800 -3,000 Descending FAA TRACON SMA TRACON (SMA)
Thu 09:38:23 AM 40.1008 -75.9931 94° East 307 353 7,700 -2,700 Descending FAA TRACON SMA TRACON (SMA)
Thu 09:38:43 AM 40.0989 -75.9597 94° East 303 349 7,000 -1,950 Descending FAA TRACON SMA TRACON (SMA)
Thu 09:39:03 AM 40.0950 -75.9275 99° East 298 343 6,400 -2,250 Descending FAA TRACON SMA TRACON (SMA)
Thu 09:39:23 AM 40.0775 -75.8956 126° Southeast 289 333 5,500 -1,800 Descending FAA TRACON SMA TRACON (SMA)
Thu 09:39:43 AM 40.0569 -75.8889 166° South 244 281 5,200 -1,050 Descending FAA TRACON SMA TRACON (SMA)
Thu 09:40:03 AM 40.0347 -75.8944 191° South 263 303 4,800 -1,650 Descending FAA TRACON SMA TRACON (SMA)
Thu 09:40:23 AM 40.0108 -75.9022 194° South 248 285 4,100 -1,200 Descending FAA TRACON SMA TRACON (SMA)
Thu 09:40:43 AM 40.0053 -75.9036 191° South 243 280 4,000 -150 Descending FAA TRACON SMA TRACON (SMA)
Thu 09:41:03 AM 40.0053 -75.9036 201° Southwest 243 280 4,000  Level FAA TRACON SMA TRACON (SMA)
Thu 09:53:00 AM 39.9790 -75.8655 131° Southeast  Level Estimated

Login

Don't have an account? Register now (free) for customized features, flight alerts, and more!